Time;durP1;ratioP1;P1;durP2;ratioP2;P2;SDS_P1;SDS_P2;PMS_P1;PMS_P2;Temp;Humidity;BMP_temperature;BMP_pressure;BME280_temperature;BME280_humidity;BME280_pressure;Samples;Min_cycle;Max_cycle;Signal;HPM_P1;HPM_P2
2022/03/10 00:00:20;;;;;;;;;31.33;26.00;;;;;;;;5164337;27;12256;-73
2022/03/10 00:02:45;;;;;;;;;40.00;32.75;;;;;;;;5145111;27;15892;-74
2022/03/10 00:05:12;;;;;;;;;28.67;26.67;;;;;;;;5164175;27;13716;-74
2022/03/10 00:07:37;;;;;;;;;30.75;29.00;;;;;;;;5164717;27;14701;-74
2022/03/10 00:10:03;;;;;;;;;36.25;30.25;;;;;;;;5164621;27;14550;-74
2022/03/10 00:12:28;;;;;;;;;31.50;27.50;;;;;;;;5164169;27;12194;-75
2022/03/10 00:14:54;;;;;;;;;30.00;25.75;;;;;;;;5164197;27;12354;-74
2022/03/10 00:17:19;;;;;;;;;33.50;25.50;;;;;;;;5164217;27;13052;-74
2022/03/10 00:19:44;;;;;;;;;40.00;31.25;;;;;;;;5163703;27;11368;-74
2022/03/10 00:22:11;;;;;;;;;30.67;24.33;;;;;;;;5164028;27;13468;-73
2022/03/10 00:24:37;;;;;;;;;19.67;17.00;;;;;;;;5164917;27;12432;-74
2022/03/10 00:27:02;;;;;;;;;28.00;22.25;;;;;;;;5164561;27;13594;-74
2022/03/10 00:29:28;;;;;;;;;30.33;25.33;;;;;;;;5164100;27;13470;-74
2022/03/10 00:31:53;;;;;;;;;23.67;20.00;;;;;;;;5163621;27;12263;-74
2022/03/10 00:34:18;;;;;;;;;34.33;27.67;;;;;;;;5164094;27;13241;-74
2022/03/10 00:36:45;;;;;;;;;31.75;30.25;;;;;;;;5164321;27;13758;-74
2022/03/10 00:39:11;;;;;;;;;39.00;32.00;;;;;;;;5163118;27;12778;-73
2022/03/10 00:41:36;;;;;;;;;35.50;30.25;;;;;;;;5164351;27;11794;-73
2022/03/10 00:44:01;;;;;;;;;33.50;30.75;;;;;;;;5164502;27;11372;-73
2022/03/10 00:46:26;;;;;;;;;22.33;19.67;;;;;;;;5164168;27;10399;-73
2022/03/10 00:48:51;;;;;;;;;32.00;29.00;;;;;;;;5164010;27;13485;-73
2022/03/10 00:51:17;;;;;;;;;29.67;25.67;;;;;;;;5164039;27;13236;-75
2022/03/10 00:53:42;;;;;;;;;25.67;22.67;;;;;;;;5163819;27;13438;-75
2022/03/10 00:56:07;;;;;;;;;33.67;26.67;;;;;;;;5163659;27;8772;-75
2022/03/10 00:58:33;;;;;;;;;34.25;30.50;;;;;;;;5144743;27;12826;-75
2022/03/10 01:00:58;;;;;;;;;32.25;29.75;;;;;;;;5144686;27;14648;-74
2022/03/10 01:03:23;;;;;;;;;28.33;21.67;;;;;;;;5163543;27;12213;-73
2022/03/10 01:05:49;;;;;;;;;32.75;27.00;;;;;;;;5163404;27;13252;-74
2022/03/10 01:08:14;;;;;;;;;35.75;29.75;;;;;;;;5163262;27;13793;-73
2022/03/10 01:10:40;;;;;;;;;27.75;27.75;;;;;;;;5163065;27;11922;-74
2022/03/10 01:13:15;;;;;;;;;42.75;25.75;;;;;;;;5163140;27;11487;-73
2022/03/10 01:15:41;;;;;;;;;29.50;25.00;;;;;;;;5163028;27;11003;-73
2022/03/10 01:18:07;;;;;;;;;29.00;26.00;;;;;;;;5163289;27;13483;-74
2022/03/10 01:20:32;;;;;;;;;27.50;22.00;;;;;;;;5163551;27;9598;-73
2022/03/10 01:22:57;;;;;;;;;28.50;24.00;;;;;;;;5163398;27;10623;-73
2022/03/10 01:25:23;;;;;;;;;24.00;22.25;;;;;;;;5163320;27;8952;-73
2022/03/10 01:27:48;;;;;;;;;23.33;22.67;;;;;;;;5163427;27;11449;-74
2022/03/10 01:30:13;;;;;;;;;27.25;23.00;;;;;;;;5162978;27;11363;-73
2022/03/10 01:32:39;;;;;;;;;25.75;23.00;;;;;;;;5162809;27;11763;-73
2022/03/10 01:35:05;;;;;;;;;25.00;22.00;;;;;;;;5163065;27;8796;-73
2022/03/10 01:37:32;;;;;;;;;26.00;22.33;;;;;;;;5163558;27;9836;-74
2022/03/10 01:39:58;;;;;;;;;31.00;22.50;;;;;;;;5163091;27;11771;-73
2022/03/10 01:42:23;;;;;;;;;30.00;25.25;;;;;;;;5143239;27;13563;-73
2022/03/10 01:44:52;;;;;;;;;30.50;24.50;;;;;;;;5162392;27;11376;-72
2022/03/10 01:47:17;;;;;;;;;33.25;28.50;;;;;;;;5163025;27;10679;-73
2022/03/10 01:49:43;;;;;;;;;29.75;26.75;;;;;;;;5162725;27;10425;-74
2022/03/10 01:52:09;;;;;;;;;32.75;22.50;;;;;;;;5162555;27;13531;-74
2022/03/10 01:54:34;;;;;;;;;28.75;28.25;;;;;;;;5162581;27;13831;-74
2022/03/10 01:57:01;;;;;;;;;28.50;28.00;;;;;;;;5143471;27;15315;-73
2022/03/10 01:59:27;;;;;;;;;36.25;27.25;;;;;;;;5162383;27;8800;-73
2022/03/10 02:01:52;;;;;;;;;29.00;25.25;;;;;;;;5162919;27;14599;-75
2022/03/10 02:04:17;;;;;;;;;21.00;19.00;;;;;;;;5162215;27;12186;-74
2022/03/10 02:06:42;;;;;;;;;30.50;27.25;;;;;;;;5162443;27;12344;-73
2022/03/10 02:11:51;;;;;;;;;32.00;22.00;;;;;;;;5162364;27;12232;-73
2022/03/10 02:19:49;;;;;;;;;22.00;21.00;;;;;;;;5162686;27;11415;-74
2022/03/10 02:22:14;;;;;;;;;25.00;21.75;;;;;;;;5161890;27;11869;-73
2022/03/10 02:24:40;;;;;;;;;31.50;28.50;;;;;;;;5162803;27;11361;-73
2022/03/10 02:27:21;;;;;;;;;28.25;22.75;;;;;;;;5143553;27;15521;-72
2022/03/10 02:29:51;;;;;;;;;33.00;27.75;;;;;;;;5162734;27;13913;-73
2022/03/10 02:32:17;;;;;;;;;39.00;29.75;;;;;;;;5143155;27;13122;-74
2022/03/10 02:34:43;;;;;;;;;38.00;33.25;;;;;;;;5162266;27;9484;-74
2022/03/10 02:37:09;;;;;;;;;30.50;26.75;;;;;;;;5161851;27;11758;-74
2022/03/10 02:39:35;;;;;;;;;38.75;27.75;;;;;;;;5162227;27;11626;-74
2022/03/10 02:42:00;;;;;;;;;36.50;31.75;;;;;;;;5162430;27;11626;-73
2022/03/10 02:44:26;;;;;;;;;31.75;27.75;;;;;;;;5143267;27;13650;-74
2022/03/10 02:46:51;;;;;;;;;38.25;36.25;;;;;;;;5162068;27;11385;-73
2022/03/10 02:49:17;;;;;;;;;30.50;27.50;;;;;;;;5161782;27;11394;-74
2022/03/10 02:51:43;;;;;;;;;31.75;30.00;;;;;;;;5142904;27;13013;-74
2022/03/10 02:54:08;;;;;;;;;36.00;29.50;;;;;;;;5161188;27;12756;-74
2022/03/10 02:56:33;;;;;;;;;29.00;27.00;;;;;;;;5142658;27;14419;-74
2022/03/10 02:58:59;;;;;;;;;36.50;31.25;;;;;;;;5161888;27;13602;-73
2022/03/10 03:01:24;;;;;;;;;31.00;27.00;;;;;;;;5162044;27;14486;-74
2022/03/10 03:03:50;;;;;;;;;19.00;18.00;;;;;;;;5161951;27;12529;-74
2022/03/10 03:06:15;;;;;;;;;35.75;34.75;;;;;;;;5143190;27;13337;-73
2022/03/10 03:08:41;;;;;;;;;33.50;24.00;;;;;;;;5161378;27;13797;-73
2022/03/10 03:11:06;;;;;;;;;34.50;21.75;;;;;;;;5161471;27;12414;-73
2022/03/10 03:13:32;;;;;;;;;31.25;23.75;;;;;;;;5161470;27;11572;-74
2022/03/10 03:15:57;;;;;;;;;27.25;26.75;;;;;;;;5161155;27;10813;-73
2022/03/10 03:18:22;;;;;;;;;37.00;28.00;;;;;;;;5161411;27;10482;-74
2022/03/10 03:20:47;;;;;;;;;32.25;31.75;;;;;;;;5142289;27;15489;-74
2022/03/10 03:23:13;;;;;;;;;25.25;22.75;;;;;;;;5161022;27;12216;-73
2022/03/10 03:25:38;;;;;;;;;30.75;27.75;;;;;;;;5161233;27;10350;-73
2022/03/10 03:28:04;;;;;;;;;26.75;25.75;;;;;;;;5161974;27;11355;-73
2022/03/10 03:30:31;;;;;;;;;26.50;26.00;;;;;;;;5161703;27;10700;-74
2022/03/10 03:32:57;;;;;;;;;37.75;31.50;;;;;;;;5160990;27;10886;-73
2022/03/10 03:35:22;;;;;;;;;34.25;29.25;;;;;;;;5160831;27;13209;-74
2022/03/10 03:37:47;;;;;;;;;30.50;25.00;;;;;;;;5160777;27;12226;-74
2022/03/10 03:40:12;;;;;;;;;28.50;24.75;;;;;;;;5161050;27;11909;-74
2022/03/10 03:42:38;;;;;;;;;38.00;28.50;;;;;;;;5160698;27;13241;-73
2022/03/10 03:45:04;;;;;;;;;29.75;23.25;;;;;;;;5161834;27;13398;-73
2022/03/10 03:47:29;;;;;;;;;28.50;24.00;;;;;;;;5161223;27;13314;-72
2022/03/10 03:49:55;;;;;;;;;31.50;29.75;;;;;;;;5161152;27;12878;-74
2022/03/10 03:52:23;;;;;;;;;29.25;26.75;;;;;;;;5161011;27;14457;-74
2022/03/10 03:54:48;;;;;;;;;30.00;27.00;;;;;;;;5160956;27;12294;-74
2022/03/10 03:57:13;;;;;;;;;30.00;26.25;;;;;;;;5161716;27;14052;-74
2022/03/10 03:59:38;;;;;;;;;40.00;31.50;;;;;;;;5142452;27;9523;-74
2022/03/10 04:02:04;;;;;;;;;37.75;28.00;;;;;;;;5142039;27;15519;-76
2022/03/10 04:04:29;;;;;;;;;27.25;26.00;;;;;;;;5161089;27;13214;-74
2022/03/10 04:06:55;;;;;;;;;37.00;29.75;;;;;;;;5144269;27;13783;-74
2022/03/10 04:09:20;;;;;;;;;32.50;32.25;;;;;;;;5145214;27;13585;-74
2022/03/10 04:11:46;;;;;;;;;40.50;37.00;;;;;;;;5164559;27;11485;-73
2022/03/10 04:14:11;;;;;;;;;26.75;23.00;;;;;;;;5145401;27;16424;-74
2022/03/10 04:16:37;;;;;;;;;32.50;25.50;;;;;;;;5164316;27;12197;-73
2022/03/10 04:19:05;;;;;;;;;36.00;31.00;;;;;;;;5164632;27;14435;-74
2022/03/10 04:21:30;;;;;;;;;33.00;30.00;;;;;;;;5164046;27;13001;-74
2022/03/10 04:23:56;;;;;;;;;31.75;29.75;;;;;;;;5164094;27;8776;-75
2022/03/10 04:26:21;;;;;;;;;29.50;28.50;;;;;;;;5163931;27;12459;-74
2022/03/10 04:28:46;;;;;;;;;32.00;28.75;;;;;;;;5164159;27;13379;-74
2022/03/10 04:31:12;;;;;;;;;30.75;27.25;;;;;;;;5163889;27;13303;-74
2022/03/10 04:33:37;;;;;;;;;32.50;27.75;;;;;;;;5164849;27;10410;-73
2022/03/10 04:36:03;;;;;;;;;33.00;30.25;;;;;;;;5164023;27;10629;-74
2022/03/10 04:38:28;;;;;;;;;36.75;28.00;;;;;;;;5164303;27;11453;-74
2022/03/10 04:40:54;;;;;;;;;29.00;24.25;;;;;;;;5163773;27;12757;-74
2022/03/10 04:43:19;;;;;;;;;28.50;28.25;;;;;;;;5164229;27;13959;-74
2022/03/10 04:45:44;;;;;;;;;32.75;31.50;;;;;;;;5163919;27;11477;-73
2022/03/10 04:48:10;;;;;;;;;34.00;32.25;;;;;;;;5163574;27;13272;-74
2022/03/10 04:50:35;;;;;;;;;28.50;25.75;;;;;;;;5144846;27;13331;-73
2022/03/10 04:53:01;;;;;;;;;34.00;32.00;;;;;;;;5163635;27;12257;-74
2022/03/10 04:55:26;;;;;;;;;35.25;28.00;;;;;;;;5163325;27;13227;-73
2022/03/10 04:57:51;;;;;;;;;32.75;30.00;;;;;;;;5163016;27;11640;-73
2022/03/10 05:00:18;;;;;;;;;36.00;31.75;;;;;;;;5163994;27;10598;-73
2022/03/10 05:02:44;;;;;;;;;34.50;29.75;;;;;;;;5163980;27;11852;-73
2022/03/10 05:05:12;;;;;;;;;29.75;26.25;;;;;;;;5163768;27;11788;-74
2022/03/10 05:07:37;;;;;;;;;33.25;26.50;;;;;;;;5163642;27;12478;-74
2022/03/10 05:10:03;;;;;;;;;36.75;33.25;;;;;;;;5163720;27;13373;-74
2022/03/10 05:12:28;;;;;;;;;38.50;32.25;;;;;;;;5163716;27;12457;-73
2022/03/10 05:14:53;;;;;;;;;30.00;25.00;;;;;;;;5163698;27;10541;-78
2022/03/10 05:17:23;;;;;;;;;32.75;29.00;;;;;;;;5161029;27;12220;-75
2022/03/10 05:19:49;;;;;;;;;32.00;28.25;;;;;;;;5153737;27;10440;-76
2022/03/10 05:22:14;;;;;;;;;34.75;27.50;;;;;;;;5151183;27;10363;-76
2022/03/10 05:24:39;;;;;;;;;30.00;29.75;;;;;;;;5153821;27;11926;-76
2022/03/10 05:27:05;;;;;;;;;34.25;26.75;;;;;;;;5151871;27;11690;-77
2022/03/10 05:29:30;;;;;;;;;31.25;28.75;;;;;;;;5150212;27;10434;-76
2022/03/10 05:31:55;;;;;;;;;29.75;27.50;;;;;;;;5150641;27;8806;-76
2022/03/10 05:34:20;;;;;;;;;28.75;27.75;;;;;;;;5151497;27;13455;-75
2022/03/10 05:36:46;;;;;;;;;30.25;28.25;;;;;;;;5151492;27;11710;-75
2022/03/10 05:39:12;;;;;;;;;27.75;23.00;;;;;;;;5130574;27;12555;-79
2022/03/10 05:41:37;;;;;;;;;30.50;23.75;;;;;;;;5133091;27;15834;-80
2022/03/10 05:44:02;;;;;;;;;30.00;29.25;;;;;;;;5147693;27;13755;-77
2022/03/10 05:46:28;;;;;;;;;34.25;30.75;;;;;;;;5149020;27;10571;-76
2022/03/10 05:48:54;;;;;;;;;39.75;30.25;;;;;;;;5147795;27;11751;-77
